createdAt,value
2023-05-24T00:01:01.992Z,17.25
2023-05-24T00:03:32.581Z,22.50
2023-05-24T00:06:03.216Z,20.50
2023-05-24T00:08:34.739Z,21.75
2023-05-24T00:11:05.149Z,24.00
2023-05-24T00:13:35.927Z,22.00
2023-05-24T00:16:06.556Z,27.25
2023-05-24T00:18:37.325Z,25.25
2023-05-24T00:21:08.430Z,38.25
2023-05-24T00:23:39.109Z,41.50
2023-05-24T00:26:10.280Z,44.00
2023-05-24T00:28:41.340Z,51.25
2023-05-24T00:31:11.911Z,48.50
2023-05-24T00:33:42.393Z,54.50
2023-05-24T00:36:13.049Z,51.75
2023-05-24T00:38:43.990Z,50.50
2023-05-24T00:41:14.286Z,49.25
2023-05-24T00:43:44.714Z,47.00
2023-05-24T00:46:18.012Z,46.25
2023-05-24T00:48:50.121Z,43.75
2023-05-24T00:51:20.543Z,26.00
2023-05-24T00:53:51.048Z,36.25
2023-05-24T00:56:22.034Z,32.25
2023-05-24T00:58:52.908Z,31.00
2023-05-24T01:01:24.955Z,28.00
2023-05-24T01:03:55.436Z,28.50
2023-05-24T01:06:27.891Z,27.25
2023-05-24T01:09:19.049Z,28.50
2023-05-24T01:12:12.945Z,32.75
2023-05-24T01:14:46.298Z,34.25
2023-05-24T01:17:25.647Z,37.50
2023-05-24T01:20:07.253Z,37.75
2023-05-24T01:28:34.522Z,43.00
2023-05-24T01:31:05.613Z,38.50
2023-05-24T01:33:37.631Z,39.50
2023-05-24T01:36:08.250Z,35.25
2023-05-24T01:38:40.289Z,33.50
2023-05-24T01:41:28.826Z,31.25
2023-05-24T01:44:11.112Z,27.25
2023-05-24T01:46:41.736Z,31.25
2023-05-24T01:49:22.848Z,25.00
2023-05-24T01:51:58.791Z,26.75
2023-05-24T01:54:32.132Z,22.75
2023-05-24T01:57:05.677Z,22.00
2023-05-24T01:59:38.801Z,23.75
2023-05-24T02:02:09.962Z,25.50
2023-05-24T02:05:01.466Z,21.75
2023-05-24T02:07:34.769Z,21.50
2023-05-24T02:10:14.337Z,26.75
2023-05-24T02:12:51.630Z,22.75
2023-05-24T02:15:22.275Z,23.00
2023-05-24T02:17:56.030Z,21.25
2023-05-24T02:20:26.398Z,17.25
2023-05-24T02:22:57.696Z,24.00
2023-05-24T02:25:33.435Z,25.25
2023-05-24T02:28:03.731Z,21.00
2023-05-24T02:30:34.117Z,19.75
2023-05-24T02:33:04.686Z,22.00
2023-05-24T02:35:43.820Z,26.00
2023-05-24T02:38:14.295Z,30.25
2023-05-24T02:40:44.757Z,30.00
2023-05-24T02:43:15.585Z,28.75
2023-05-24T02:45:45.875Z,29.00
2023-05-24T02:48:16.283Z,32.25
2023-05-24T02:50:46.888Z,31.50
2023-05-24T02:53:17.318Z,31.00
2023-05-24T02:55:47.812Z,31.25
2023-05-24T02:58:18.603Z,34.25
2023-05-24T03:00:48.808Z,26.50
2023-05-24T03:03:19.292Z,27.00
2023-05-24T03:05:49.636Z,25.00
2023-05-24T03:08:21.632Z,26.00
2023-05-24T03:10:51.849Z,28.00
2023-05-24T03:13:22.304Z,25.00
2023-05-24T03:18:53.386Z,26.00
2023-05-24T03:21:23.792Z,25.75
2023-05-24T03:23:54.261Z,27.25
2023-05-24T03:26:24.747Z,27.75
2023-05-24T03:28:56.065Z,27.25
2023-05-24T03:31:26.585Z,27.50
2023-05-24T03:33:57.011Z,26.25
2023-05-24T03:36:28.132Z,26.25
2023-05-24T03:39:00.507Z,31.00
2023-05-24T03:41:31.109Z,27.50
2023-05-24T03:44:02.624Z,30.75
2023-05-24T03:46:33.436Z,25.75
2023-05-24T03:49:05.627Z,31.50
2023-05-24T03:51:36.376Z,33.50
2023-05-24T03:54:09.939Z,42.25
2023-05-24T03:56:40.344Z,49.25
2023-05-24T03:59:13.017Z,52.00
2023-05-24T04:01:43.772Z,52.50
2023-05-24T04:04:14.184Z,55.75
2023-05-24T04:06:44.559Z,51.25
2023-05-24T04:09:15.017Z,51.00
2023-05-24T04:11:45.465Z,50.75
2023-05-24T04:14:15.810Z,48.75
2023-05-24T04:16:46.125Z,50.25
2023-05-24T04:19:16.459Z,49.50
2023-05-24T04:21:53.398Z,45.50
2023-05-24T04:24:24.437Z,45.75
2023-05-24T04:26:55.187Z,44.00
2023-05-24T04:29:26.047Z,42.50
2023-05-24T04:31:56.578Z,45.00
2023-05-24T04:34:28.598Z,46.00
2023-05-24T04:36:59.130Z,48.25
2023-05-24T04:39:31.371Z,50.00
2023-05-24T04:42:03.429Z,48.75
2023-05-24T04:44:36.654Z,47.25
2023-05-24T04:47:07.482Z,49.75
2023-05-24T04:49:39.471Z,48.00
2023-05-24T04:52:09.883Z,49.75
2023-05-24T04:54:40.548Z,49.25
2023-05-24T04:57:16.617Z,49.50
2023-05-24T04:59:47.064Z,45.50
2023-05-24T05:02:17.538Z,46.00
2023-05-24T05:04:48.242Z,47.25
2023-05-24T05:07:19.776Z,44.50
2023-05-24T05:09:50.323Z,43.50
2023-05-24T05:12:29.465Z,44.75
2023-05-24T05:15:00.157Z,44.00
2023-05-24T05:17:30.482Z,41.25
2023-05-24T05:20:02.692Z,43.00
2023-05-24T05:22:33.400Z,46.25
2023-05-24T05:25:04.257Z,48.50
2023-05-24T05:27:34.918Z,46.00
2023-05-24T05:33:06.835Z,49.75
2023-05-24T05:35:54.266Z,49.75
2023-05-24T05:48:30.081Z,43.40
2023-05-24T05:49:05.268Z,45.50
2023-05-24T05:51:00.982Z,39.80
2023-05-24T06:11:34.894Z,41.40
2023-05-24T06:17:04.775Z,38.80
2023-05-24T06:19:49.365Z,40.60
2023-05-24T06:22:22.494Z,41.20
2023-05-24T06:25:01.889Z,41.00
2023-05-24T06:27:37.772Z,41.00
2023-05-24T06:30:11.010Z,36.80
2023-05-24T06:32:43.375Z,37.00
2023-05-24T06:35:14.105Z,35.40
2023-05-24T06:37:48.996Z,36.80
2023-05-24T06:40:21.897Z,36.20
2023-05-24T06:42:59.989Z,31.80
2023-05-24T06:45:39.527Z,33.60
2023-05-24T06:48:16.244Z,33.20
2023-05-24T06:50:47.342Z,29.00
2023-05-24T06:53:23.113Z,27.40
2023-05-24T06:56:05.650Z,29.20
2023-05-24T06:58:34.177Z,31.00
2023-05-24T07:01:09.480Z,30.20
2023-05-24T07:03:47.575Z,27.60
2023-05-24T07:06:30.922Z,30.00
2023-05-24T07:09:05.885Z,28.80
2023-05-24T07:11:39.454Z,30.60
2023-05-24T07:14:11.255Z,28.00
2023-05-24T07:20:24.664Z,25.60
2023-05-24T07:22:38.495Z,29.60
2023-05-24T07:25:13.443Z,25.00
2023-05-24T07:27:46.259Z,24.80
2023-05-24T07:30:32.770Z,21.00
2023-05-24T07:33:14.678Z,16.60
2023-05-24T07:35:47.819Z,20.20
2023-05-24T07:38:24.258Z,22.80
2023-05-24T07:41:06.708Z,19.00
2023-05-24T07:43:42.093Z,24.60
2023-05-24T07:46:18.660Z,26.00
2023-05-24T07:49:01.219Z,25.40
2023-05-24T07:51:32.390Z,25.00
2023-05-24T07:54:10.800Z,22.60
2023-05-24T07:56:46.796Z,24.00
2023-05-24T07:59:20.304Z,23.40
2023-05-24T08:14:24.754Z,16.80
2023-05-24T08:17:11.715Z,21.60
2023-05-24T08:19:45.408Z,18.20
2023-05-24T08:28:05.848Z,14.40
2023-05-24T08:30:47.202Z,22.00
2023-05-24T08:33:20.424Z,23.80
2023-05-24T08:36:02.373Z,21.40
2023-05-24T08:41:27.014Z,17.80
2023-05-24T08:47:11.917Z,18.40
2023-05-24T08:49:45.078Z,19.40
2023-05-24T08:52:20.712Z,18.60
2023-05-24T08:54:59.840Z,20.20
2023-05-24T08:57:36.840Z,19.80
2023-05-24T09:00:10.819Z,15.40
2023-05-24T09:02:43.610Z,17.80
2023-05-24T09:05:15.579Z,18.60
2023-05-24T09:07:48.206Z,19.80
2023-05-24T09:10:52.800Z,18.20
2023-05-24T09:13:14.820Z,17.40
2023-05-24T09:15:45.452Z,16.40
2023-05-24T09:18:17.456Z,18.00
2023-05-24T09:20:48.365Z,14.80
2023-05-24T09:23:32.380Z,18.20
2023-05-24T09:26:13.160Z,18.20
2023-05-24T09:28:43.863Z,18.00
2023-05-24T09:31:16.753Z,14.00
2023-05-24T09:33:48.798Z,16.00
2023-05-24T09:36:19.301Z,16.00
2023-05-24T09:38:50.484Z,19.40
2023-05-24T09:41:24.584Z,20.80
2023-05-24T09:43:54.783Z,16.60
2023-05-24T09:46:25.332Z,17.20
2023-05-24T09:48:59.834Z,16.80
2023-05-24T09:51:30.798Z,18.80
2023-05-24T09:54:05.544Z,13.20
2023-05-24T09:56:36.454Z,16.80
2023-05-24T09:59:08.547Z,15.80
2023-05-24T10:01:39.241Z,17.60
2023-05-24T10:04:10.722Z,13.60
2023-05-24T10:06:42.778Z,12.20
2023-05-24T10:09:13.331Z,18.00
2023-05-24T10:11:46.786Z,13.60
2023-05-24T10:14:17.759Z,21.80
2023-05-24T10:16:52.885Z,17.40
2023-05-24T10:19:23.591Z,19.20
2023-05-24T10:21:58.316Z,21.00
2023-05-24T10:24:31.548Z,20.40
2023-05-24T10:27:13.362Z,12.00
2023-05-24T10:30:16.854Z,22.80
2023-05-24T10:32:49.277Z,25.40
2023-05-24T10:35:24.311Z,21.40
2023-05-24T10:37:55.540Z,22.80
2023-05-24T10:40:26.584Z,25.80
2023-05-24T10:43:01.559Z,23.00
2023-05-24T10:45:42.094Z,25.80
2023-05-24T10:48:18.649Z,24.00
2023-05-24T10:50:52.105Z,25.20
2023-05-24T10:53:25.703Z,28.00
2023-05-24T10:56:01.312Z,28.00
2023-05-24T10:58:46.704Z,24.00
2023-05-24T11:01:33.946Z,24.80
2023-05-24T11:04:18.843Z,27.00
2023-05-24T11:06:56.988Z,27.00
2023-05-24T11:09:28.005Z,15.80
2023-05-24T11:12:09.250Z,21.20
2023-05-24T11:14:41.722Z,18.00
2023-05-24T11:17:12.441Z,18.80
2023-05-24T11:19:52.858Z,26.80
2023-05-24T11:22:27.446Z,23.60
2023-05-24T11:24:58.132Z,18.80
2023-05-24T11:27:29.087Z,19.80
2023-05-24T11:30:01.131Z,16.40
2023-05-24T11:32:34.232Z,17.20
2023-05-24T11:35:05.899Z,20.00
2023-05-24T11:37:46.130Z,20.40
2023-05-24T11:40:11.242Z,22.40
2023-05-24T11:42:42.571Z,20.00
2023-05-24T11:45:15.525Z,18.00
2023-05-24T11:47:50.119Z,27.80
2023-05-24T11:50:28.709Z,20.80
2023-05-24T11:53:04.469Z,18.80
2023-05-24T11:55:40.645Z,18.40
2023-05-24T11:58:29.636Z,19.40
2023-05-24T12:01:00.372Z,21.40
2023-05-24T12:03:31.003Z,19.20
2023-05-24T12:06:03.063Z,20.00
2023-05-24T12:08:36.350Z,18.20
2023-05-24T12:11:14.542Z,19.20
2023-05-24T12:13:50.736Z,18.40
2023-05-24T12:16:21.355Z,16.40
2023-05-24T12:19:05.314Z,18.20
2023-05-24T12:21:33.428Z,18.40
2023-05-24T12:24:15.743Z,17.00
2023-05-24T12:26:53.290Z,18.40
2023-05-24T12:29:28.227Z,17.80
2023-05-24T12:32:08.606Z,14.40
2023-05-24T12:34:44.053Z,17.60
2023-05-24T12:37:20.332Z,16.40
2023-05-24T12:43:13.749Z,26.80
2023-05-24T12:45:43.079Z,27.20
2023-05-24T12:48:16.800Z,27.80
2023-05-24T12:50:49.827Z,28.80
2023-05-24T12:53:23.775Z,25.20
2023-05-24T12:55:57.107Z,29.40
2023-05-24T12:58:30.744Z,29.00
2023-05-24T13:04:16.965Z,30.40
2023-05-24T13:06:52.779Z,30.20
2023-05-24T13:09:23.975Z,30.60
2023-05-24T13:11:57.878Z,32.00
2023-05-24T13:14:28.654Z,30.80
2023-05-24T13:16:59.618Z,30.80
2023-05-24T13:19:30.401Z,29.80
2023-05-24T13:22:01.044Z,30.80
2023-05-24T13:24:32.210Z,29.80
2023-05-24T13:27:03.506Z,30.40
2023-05-24T13:29:45.627Z,31.00
2023-05-24T13:32:06.756Z,32.00
2023-05-24T13:34:40.908Z,29.80
2023-05-24T13:37:13.275Z,31.00
2023-05-24T13:39:44.346Z,29.60
2023-05-24T13:42:18.287Z,22.80
2023-05-24T13:44:49.207Z,19.20
2023-05-24T13:47:38.653Z,25.80
2023-05-24T13:50:01.058Z,22.00
2023-05-24T13:52:31.869Z,20.20
2023-05-24T13:55:04.224Z,20.20
2023-05-24T13:57:51.303Z,19.80
2023-05-24T14:00:18.968Z,21.20
2023-05-24T14:02:53.917Z,23.20
2023-05-24T14:05:30.634Z,25.60
2023-05-24T14:08:27.924Z,25.00
2023-05-24T14:10:55.761Z,18.40
2023-05-24T14:16:16.019Z,15.40
2023-05-24T14:18:56.262Z,15.00
2023-05-24T14:21:28.509Z,14.40
2023-05-24T14:24:02.466Z,13.40
2023-05-24T14:26:33.372Z,11.20
2023-05-24T14:29:04.233Z,12.80
2023-05-24T14:31:37.369Z,18.00
2023-05-24T14:34:11.825Z,17.60
2023-05-24T14:36:44.151Z,25.40
2023-05-24T14:39:22.119Z,30.20
2023-05-24T14:41:53.029Z,32.00
2023-05-24T14:44:23.699Z,34.80
2023-05-24T14:46:57.944Z,27.20
2023-05-24T14:49:28.675Z,27.80
2023-05-24T14:51:59.532Z,24.80
2023-05-24T14:54:30.262Z,25.20
2023-05-24T14:57:01.137Z,23.80
2023-05-24T14:59:33.397Z,22.60
2023-05-24T15:02:05.526Z,21.40
2023-05-24T15:04:38.039Z,18.60
2023-05-24T15:07:11.321Z,17.00
2023-05-24T15:09:42.108Z,21.20
2023-05-24T15:12:12.922Z,17.00
2023-05-24T15:14:44.956Z,19.00
2023-05-24T15:17:23.270Z,20.40
2023-05-24T15:19:57.223Z,23.80
2023-05-24T15:22:31.758Z,26.00
2023-05-24T15:25:03.794Z,20.60
2023-05-24T15:27:37.558Z,25.00
2023-05-24T15:30:11.297Z,19.40
2023-05-24T15:32:44.303Z,17.60
2023-05-24T15:35:17.704Z,12.80
2023-05-24T15:37:49.733Z,14.00
2023-05-24T15:40:24.307Z,13.00
2023-05-24T15:42:59.051Z,15.20
2023-05-24T15:45:43.702Z,13.40
2023-05-24T15:48:05.095Z,12.60
2023-05-24T15:50:59.978Z,13.60
2023-05-24T15:53:23.134Z,15.00
2023-05-24T15:56:02.914Z,9.00
2023-05-24T15:58:44.252Z,12.40
2023-05-24T16:01:16.709Z,10.60
2023-05-24T16:03:49.910Z,13.00
2023-05-24T16:06:23.870Z,12.20
2023-05-24T16:09:01.293Z,14.00
2023-05-24T16:11:36.746Z,14.20
2023-05-24T16:14:25.237Z,12.20
2023-05-24T16:17:02.244Z,13.00
2023-05-24T16:19:34.506Z,12.40
2023-05-24T16:22:32.992Z,12.20
2023-05-24T16:25:04.727Z,11.40
2023-05-24T16:27:35.813Z,13.00
2023-05-24T16:30:09.768Z,12.60
2023-05-24T16:33:02.328Z,11.60
2023-05-24T16:38:36.779Z,13.60
2023-05-24T16:41:15.828Z,14.00
2023-05-24T16:43:51.421Z,15.00
2023-05-24T16:49:24.621Z,14.00
2023-05-24T16:51:59.885Z,17.00
2023-05-24T16:58:04.576Z,17.00
2023-05-24T17:03:32.653Z,23.60
2023-05-24T17:06:08.969Z,20.80
2023-05-24T17:08:41.525Z,17.80
2023-05-24T17:11:15.240Z,21.80
2023-05-24T17:13:50.451Z,20.60
2023-05-24T17:16:25.351Z,25.60
2023-05-24T17:19:00.846Z,25.40
2023-05-24T17:21:34.252Z,22.00
2023-05-24T17:24:09.653Z,20.00
2023-05-24T17:26:36.984Z,13.80
2023-05-24T17:29:08.051Z,20.80
2023-05-24T17:31:42.422Z,17.20
2023-05-24T17:34:14.372Z,15.60
2023-05-24T17:36:46.471Z,18.20
2023-05-24T17:39:19.893Z,16.80
2023-05-24T17:41:53.573Z,21.60
2023-05-24T17:44:32.051Z,22.00
2023-05-24T17:47:07.367Z,27.20
2023-05-24T17:49:45.733Z,22.40
2023-05-24T17:52:22.913Z,23.40
2023-05-24T17:54:56.485Z,26.60
2023-05-24T17:57:29.092Z,22.40
2023-05-24T17:59:59.851Z,20.60
2023-05-24T18:02:30.933Z,27.00
2023-05-24T18:05:02.724Z,28.80
2023-05-24T18:07:33.776Z,25.00
2023-05-24T18:10:08.453Z,26.20
2023-05-24T18:13:00.783Z,27.20
2023-05-24T18:15:35.950Z,23.00
2023-05-24T18:18:12.780Z,22.20
2023-05-24T18:20:45.280Z,22.40
2023-05-24T18:23:16.537Z,24.80
2023-05-24T18:26:01.443Z,19.20
2023-05-24T18:28:24.275Z,21.00
2023-05-24T18:34:28.740Z,20.60
2023-05-24T18:37:25.979Z,17.20
2023-05-24T18:39:58.155Z,21.60
2023-05-24T18:42:44.446Z,20.20
2023-05-24T18:45:15.012Z,21.60
2023-05-24T18:47:49.122Z,24.80
2023-05-24T18:50:22.068Z,22.20
2023-05-24T18:52:53.744Z,24.60
2023-05-24T18:55:31.837Z,20.80
2023-05-24T18:58:10.497Z,22.00
2023-05-24T19:00:45.738Z,21.60
2023-05-24T19:03:19.063Z,22.60
2023-05-24T19:05:50.167Z,21.60
2023-05-24T19:08:28.191Z,17.40
2023-05-24T19:11:12.633Z,20.60
2023-05-24T19:16:48.281Z,23.80
2023-05-24T19:17:18.586Z,21.60
2023-05-24T19:19:23.944Z,21.60
2023-05-24T19:22:48.603Z,25.20
2023-05-24T19:24:58.447Z,23.20
2023-05-24T19:27:29.327Z,24.60
2023-05-24T19:30:00.011Z,27.20
2023-05-24T19:32:51.416Z,24.60
2023-05-24T19:35:12.313Z,26.20
2023-05-24T19:37:45.083Z,28.20
2023-05-24T19:40:15.676Z,30.60
2023-05-24T19:42:46.773Z,31.20
2023-05-24T19:45:21.082Z,34.00
2023-05-24T19:47:52.066Z,40.25
2023-05-24T19:50:23.898Z,42.75
2023-05-24T19:53:05.181Z,41.00
2023-05-24T19:55:44.621Z,36.00
2023-05-24T19:58:15.408Z,29.00
2023-05-24T20:00:46.010Z,37.75
2023-05-24T20:03:16.436Z,35.20
2023-05-24T20:05:48.516Z,33.40
2023-05-24T20:08:27.191Z,31.20
2023-05-24T20:10:57.993Z,28.80
2023-05-24T20:13:28.424Z,26.40
2023-05-24T20:15:58.895Z,27.20
2023-05-24T20:18:30.523Z,26.20
2023-05-24T20:21:02.790Z,28.40
2023-05-24T20:23:33.611Z,27.20
2023-05-24T20:26:05.131Z,30.40
2023-05-24T20:28:40.236Z,27.00
2023-05-24T20:31:13.886Z,27.40
2023-05-24T20:36:53.930Z,24.00
2023-05-24T20:39:27.825Z,27.60
2023-05-24T20:42:06.101Z,33.80
2023-05-24T20:44:34.994Z,45.00
2023-05-24T20:50:11.412Z,46.50
2023-05-24T20:55:28.983Z,45.50
2023-05-24T20:58:07.450Z,46.50
2023-05-24T21:00:40.106Z,47.50
2023-05-24T21:03:13.883Z,47.25
2023-05-24T21:05:56.693Z,45.25
2023-05-24T21:08:28.682Z,47.75
2023-05-24T21:10:59.617Z,44.00
2023-05-24T21:13:33.181Z,44.50
2023-05-24T21:18:55.266Z,42.25
2023-05-24T21:21:28.330Z,40.75
2023-05-24T21:24:08.868Z,42.25
2023-05-24T21:26:41.039Z,40.50
2023-05-24T21:29:17.297Z,41.25
2023-05-24T21:31:52.552Z,41.25
2023-05-24T21:34:45.373Z,44.00
2023-05-24T21:37:16.252Z,43.50
2023-05-24T21:39:51.680Z,44.00
2023-05-24T21:42:26.777Z,43.50
2023-05-24T21:44:57.454Z,46.00
2023-05-24T21:47:30.421Z,45.25
2023-05-24T21:50:02.248Z,45.50
2023-05-24T21:52:47.343Z,45.25
2023-05-24T21:55:17.710Z,45.75
2023-05-24T21:57:48.503Z,44.25
2023-05-24T22:00:24.823Z,42.50
2023-05-24T22:02:56.230Z,46.25
2023-05-24T22:05:28.314Z,46.00
2023-05-24T22:08:03.331Z,54.75
2023-05-24T22:10:35.079Z,45.50
2023-05-24T22:13:07.556Z,41.25
2023-05-24T22:15:38.474Z,35.75
2023-05-24T22:18:09.438Z,39.25
2023-05-24T22:20:41.362Z,38.25
2023-05-24T22:23:16.282Z,37.75
2023-05-24T22:25:46.880Z,40.75
2023-05-24T22:28:17.155Z,40.75
2023-05-24T22:30:50.051Z,24.75
2023-05-24T22:33:20.778Z,39.00
2023-05-24T22:35:51.289Z,43.00
2023-05-24T22:38:21.686Z,42.50
2023-05-24T22:40:52.021Z,43.75
2023-05-24T22:43:22.553Z,45.50
2023-05-24T22:45:52.977Z,43.25
2023-05-24T22:48:23.414Z,43.25
2023-05-24T22:50:54.516Z,45.50
2023-05-24T22:53:25.432Z,41.25
2023-05-24T22:55:55.845Z,47.25
2023-05-24T22:58:26.403Z,45.50
2023-05-24T23:00:56.715Z,46.50
2023-05-24T23:03:26.978Z,43.50
2023-05-24T23:05:57.375Z,44.00
2023-05-24T23:08:27.907Z,45.50
2023-05-24T23:10:58.801Z,45.25
2023-05-24T23:13:29.253Z,44.75
2023-05-24T23:15:59.656Z,47.00
2023-05-24T23:18:31.813Z,45.00
2023-05-24T23:21:02.054Z,47.50
2023-05-24T23:23:32.659Z,48.50
2023-05-24T23:26:03.062Z,46.25
2023-05-24T23:28:33.677Z,42.75
2023-05-24T23:31:04.052Z,45.75
2023-05-24T23:33:34.490Z,43.00
2023-05-24T23:36:05.264Z,43.25
2023-05-24T23:38:36.370Z,42.00
2023-05-24T23:41:06.704Z,43.00
2023-05-24T23:43:36.845Z,42.25
2023-05-24T23:46:07.198Z,41.00
2023-05-24T23:48:39.179Z,44.25
2023-05-24T23:51:09.511Z,41.50
2023-05-24T23:53:39.970Z,46.00
2023-05-24T23:56:10.392Z,44.25
2023-05-24T23:58:41.324Z,49.25
